Time;durP1;ratioP1;P1;durP2;ratioP2;P2;SDS_P1;SDS_P2;PMS_P1;PMS_P2;Temp;Humidity;BMP_temperature;BMP_pressure;BME280_temperature;BME280_humidity;BME280_pressure;Samples;Min_cycle;Max_cycle;Signal;HPM_P1;HPM_P2
2021/12/08 00:01:54;;;;;;;11.47;6.00;;;;;1.30;95109.00;;;;8379336;28;20304;-74
2021/12/08 00:05:58;;;;;;;11.53;6.27;;;;;1.30;95084.00;;;;8371297;28;20257;-74
2021/12/08 00:10:12;;;;;;;12.63;6.67;;;;;1.40;95081.00;;;;8378109;28;20942;-73
2021/12/08 00:14:16;;;;;;;10.87;6.37;;;;;1.40;95072.00;;;;8376343;28;20249;-73
2021/12/08 00:18:25;;;;;;;25.70;10.03;;;;;1.40;95064.00;;;;8374584;28;20252;-74
2021/12/08 00:22:28;;;;;;;19.13;8.27;;;;;1.40;95062.00;;;;8378526;28;20236;-74
2021/12/08 00:26:32;;;;;;;18.53;8.33;;;;;1.40;95051.00;;;;8375104;28;20252;-72
2021/12/08 00:30:38;;;;;;;15.77;7.70;;;;;1.40;95043.00;;;;8376674;28;20589;-73
2021/12/08 00:34:42;;;;;;;16.30;7.10;;;;;1.30;95046.00;;;;8373735;28;20244;-73
2021/12/08 00:38:46;;;;;;;23.07;7.60;;;;;1.30;95052.00;;;;8373996;28;20239;-73
2021/12/08 00:42:49;;;;;;;7.40;4.93;;;;;1.30;95050.00;;;;8373148;28;20337;-72
2021/12/08 00:46:53;;;;;;;16.97;8.53;;;;;1.40;95058.00;;;;8369967;28;20252;-72
2021/12/08 00:50:58;;;;;;;23.70;8.30;;;;;1.40;95062.00;;;;8379114;28;20323;-72
2021/12/08 00:55:06;;;;;;;21.10;8.30;;;;;1.40;95050.00;;;;8374433;28;20268;-73
2021/12/08 00:59:09;;;;;;;20.83;8.77;;;;;1.50;95065.00;;;;8378727;28;20256;-72
2021/12/08 01:03:14;;;;;;;21.37;8.77;;;;;1.50;95058.00;;;;8374866;28;20652;-72
2021/12/08 01:07:19;;;;;;;18.70;8.03;;;;;1.60;95046.00;;;;8377862;28;20247;-72
2021/12/08 01:11:22;;;;;;;20.10;8.97;;;;;1.60;95050.00;;;;8373727;28;20228;-73
2021/12/08 01:15:28;;;;;;;17.47;8.13;;;;;1.60;95053.00;;;;8376692;28;20228;-73
2021/12/08 01:19:31;;;;;;;16.57;7.93;;;;;1.60;95046.00;;;;8371514;28;20253;-73
2021/12/08 01:23:37;;;;;;;22.43;8.90;;;;;1.60;95047.00;;;;8374200;28;20298;-72
2021/12/08 01:27:42;;;;;;;11.13;6.33;;;;;1.60;95027.00;;;;8373083;28;20223;-73
2021/12/08 01:31:45;;;;;;;8.77;5.40;;;;;1.60;95023.00;;;;8377248;28;20236;-73
2021/12/08 01:35:49;;;;;;;17.23;8.70;;;;;1.60;95007.00;;;;8375394;28;20728;-72
2021/12/08 01:39:53;;;;;;;20.27;8.67;;;;;1.60;95004.00;;;;8374187;28;20236;-71
2021/12/08 01:48:19;;;;;;;16.17;8.33;;;;;1.60;94997.00;;;;8373778;28;20228;-73
2021/12/08 01:52:23;;;;;;;14.93;7.93;;;;;1.70;94992.00;;;;8378802;28;20232;-73
2021/12/08 01:56:27;;;;;;;20.40;9.57;;;;;1.70;94978.00;;;;8374343;28;21040;-72
2021/12/08 02:00:36;;;;;;;12.47;6.90;;;;;1.70;94976.00;;;;8377196;28;20324;-72
2021/12/08 02:04:40;;;;;;;16.67;7.67;;;;;1.70;94942.00;;;;8369725;28;20273;-72
2021/12/08 02:08:44;;;;;;;18.90;6.97;;;;;1.70;94942.00;;;;8371819;28;20250;-73
2021/12/08 02:12:49;;;;;;;15.20;8.30;;;;;1.70;94958.00;;;;8375171;28;20255;-72
2021/12/08 02:16:55;;;;;;;18.30;7.50;;;;;1.70;94967.00;;;;8377813;28;20263;-72
2021/12/08 02:21:00;;;;;;;14.60;8.00;;;;;1.70;94969.00;;;;8376846;28;20314;-72
2021/12/08 02:25:05;;;;;;;15.50;7.60;;;;;1.70;94966.00;;;;8373586;28;20365;-72
2021/12/08 02:29:14;;;;;;;13.10;7.77;;;;;1.80;94959.00;;;;8377472;28;20252;-72
2021/12/08 02:50:44;;;;;;;17.03;8.80;;;;;1.90;94946.00;;;;8379955;28;20210;-73
2021/12/08 02:54:52;;;;;;;14.20;7.43;;;;;1.80;94949.00;;;;8368327;28;20247;-74
2021/12/08 02:58:55;;;;;;;16.70;7.53;;;;;1.80;94952.00;;;;8382117;28;20224;-72
2021/12/08 03:03:00;;;;;;;17.73;8.30;;;;;1.90;94933.00;;;;8379999;22;20321;-72
2021/12/08 03:07:04;;;;;;;18.73;8.40;;;;;1.90;94932.00;;;;8307720;28;20314;-73
2021/12/08 03:11:09;;;;;;;25.97;8.30;;;;;1.90;94920.00;;;;8308946;28;20892;-73
2021/12/08 03:15:13;;;;;;;13.47;7.43;;;;;1.80;94900.00;;;;8316831;28;20261;-72
2021/12/08 03:19:17;;;;;;;16.83;7.70;;;;;1.80;94899.00;;;;8301353;28;20265;-72
2021/12/08 03:23:28;;;;;;;18.13;7.53;;;;;1.70;94894.00;;;;8313738;28;20759;-72
2021/12/08 03:27:39;;;;;;;23.77;9.63;;;;;1.70;94893.00;;;;8321906;28;20254;-72
2021/12/08 03:31:44;;;;;;;22.50;8.80;;;;;1.70;94890.00;;;;8308024;28;20937;-72
2021/12/08 03:35:48;;;;;;;19.87;9.03;;;;;1.70;94885.00;;;;8308906;28;20243;-73
2021/12/08 03:39:52;;;;;;;23.53;9.60;;;;;1.70;94895.00;;;;8306523;28;20305;-72
2021/12/08 03:43:57;;;;;;;18.77;9.33;;;;;1.80;94898.00;;;;8313720;28;20723;-72
2021/12/08 03:48:05;;;;;;;20.07;7.90;;;;;1.80;94892.00;;;;8312302;28;20245;-73
2021/12/08 03:52:08;;;;;;;22.57;9.87;;;;;1.80;94901.00;;;;8311301;28;20704;-72
2021/12/08 03:56:12;;;;;;;26.60;10.27;;;;;1.90;94904.00;;;;8311215;28;20257;-73
2021/12/08 04:00:19;;;;;;;27.90;9.67;;;;;2.00;94906.00;;;;8318840;28;20245;-73
2021/12/08 04:04:26;;;;;;;17.87;9.13;;;;;2.00;94911.00;;;;8290220;28;20263;-73
2021/12/08 04:08:38;;;;;;;23.00;8.60;;;;;2.00;94907.00;;;;8285937;28;20253;-73
2021/12/08 04:12:42;;;;;;;37.63;10.87;;;;;2.00;94885.00;;;;8282426;28;20236;-72
2021/12/08 04:16:50;;;;;;;28.27;9.73;;;;;2.00;94911.00;;;;8282309;28;20257;-73
2021/12/08 04:20:58;;;;;;;28.07;10.30;;;;;2.00;94915.00;;;;8286984;28;20258;-72
2021/12/08 04:25:03;;;;;;;25.10;9.67;;;;;2.00;94926.00;;;;8284206;28;20277;-73
2021/12/08 04:29:08;;;;;;;24.70;10.10;;;;;2.00;94932.00;;;;8286862;28;20250;-73
2021/12/08 04:33:14;;;;;;;25.77;10.80;;;;;2.00;94934.00;;;;8280371;28;20250;-73
2021/12/08 04:37:27;;;;;;;30.40;10.83;;;;;2.10;94918.00;;;;8282571;28;20262;-73
2021/12/08 04:41:36;;;;;;;31.60;11.03;;;;;2.10;94928.00;;;;8283793;28;20312;-73
2021/12/08 04:45:56;;;;;;;25.50;10.00;;;;;2.10;94932.00;;;;8287240;28;20287;-71
2021/12/08 05:03:43;;;;;;;31.40;11.83;;;;;2.10;94929.00;;;;8283845;28;20226;-73
2021/12/08 05:07:53;;;;;;;25.87;11.60;;;;;2.10;94931.00;;;;8283413;28;20231;-73
2021/12/08 05:12:01;;;;;;;23.87;11.70;;;;;2.10;94935.00;;;;8283449;28;20690;-73
2021/12/08 05:16:05;;;;;;;26.07;11.17;;;;;2.10;94920.00;;;;8285141;28;20315;-72
2021/12/08 05:20:14;;;;;;;26.60;10.93;;;;;2.00;94925.00;;;;8298049;28;20242;-73
2021/12/08 05:24:22;;;;;;;26.00;11.33;;;;;2.00;94929.00;;;;8315322;28;20260;-73
2021/12/08 05:28:27;;;;;;;31.03;11.47;;;;;2.00;94941.00;;;;8285530;28;20257;-73
2021/12/08 05:32:31;;;;;;;34.60;11.93;;;;;2.10;94940.00;;;;8280716;28;20245;-72
2021/12/08 05:36:35;;;;;;;35.30;12.13;;;;;2.10;94947.00;;;;8279102;28;20850;-71
2021/12/08 05:40:46;;;;;;;30.97;12.90;;;;;2.10;94948.00;;;;8283631;28;20369;-72
2021/12/08 05:44:50;;;;;;;35.43;11.83;;;;;2.10;94939.00;;;;8290684;28;20754;-72
2021/12/08 05:48:54;;;;;;;33.00;11.30;;;;;2.10;94946.00;;;;8311652;28;20751;-72
2021/12/08 05:52:58;;;;;;;32.30;12.60;;;;;2.10;94927.00;;;;8283582;28;20425;-72
2021/12/08 05:57:06;;;;;;;31.10;12.47;;;;;2.10;94936.00;;;;8285285;28;20259;-72
2021/12/08 06:01:15;;;;;;;36.23;12.53;;;;;2.00;94939.00;;;;8281536;28;20226;-72
2021/12/08 06:05:20;;;;;;;26.40;12.43;;;;;2.00;94937.00;;;;8283093;28;20260;-71
2021/12/08 06:09:25;;;;;;;25.13;11.17;;;;;2.00;94936.00;;;;8285888;28;20257;-72
2021/12/08 06:13:30;;;;;;;33.33;13.07;;;;;2.10;94915.00;;;;8308584;28;20313;-72
2021/12/08 06:17:34;;;;;;;43.07;14.20;;;;;2.10;94919.00;;;;8282610;28;20646;-71
2021/12/08 06:21:38;;;;;;;37.17;13.10;;;;;2.10;94922.00;;;;8310881;28;20571;-71
2021/12/08 06:25:41;;;;;;;32.50;13.13;;;;;2.10;94919.00;;;;8305909;28;20241;-72
2021/12/08 06:29:49;;;;;;;36.47;13.83;;;;;2.10;94908.00;;;;8282912;28;20251;-71
2021/12/08 06:33:52;;;;;;;38.23;13.77;;;;;2.10;94910.00;;;;8289214;28;20272;-71
2021/12/08 06:37:57;;;;;;;32.87;12.30;;;;;2.10;94915.00;;;;8289334;28;20310;-72
2021/12/08 06:42:04;;;;;;;31.10;12.23;;;;;2.10;94934.00;;;;8288686;28;20626;-73
2021/12/08 06:46:09;;;;;;;34.33;13.23;;;;;2.20;94928.00;;;;8295397;28;20247;-71
2021/12/08 06:50:17;;;;;;;36.33;12.60;;;;;2.30;94927.00;;;;8288950;28;20235;-73
2021/12/08 06:54:25;;;;;;;29.50;12.63;;;;;2.30;94936.00;;;;8305067;28;20231;-72
2021/12/08 06:58:31;;;;;;;31.43;13.03;;;;;2.40;94934.00;;;;8293739;28;20642;-73
2021/12/08 07:02:55;;;;;;;41.30;13.43;;;;;2.40;94930.00;;;;8291449;28;20242;-73
2021/12/08 07:07:08;;;;;;;34.33;12.20;;;;;2.40;94913.00;;;;8294605;28;20311;-73
2021/12/08 07:11:15;;;;;;;32.47;12.87;;;;;2.30;94914.00;;;;8291858;28;20223;-73
2021/12/08 07:15:22;;;;;;;41.80;14.10;;;;;2.30;94911.00;;;;8293482;28;20270;-72
2021/12/08 07:19:36;;;;;;;33.07;12.97;;;;;2.40;94916.00;;;;8293989;28;20594;-72
2021/12/08 07:23:43;;;;;;;38.67;14.03;;;;;2.30;94905.00;;;;8272546;28;20257;-73
2021/12/08 07:27:47;;;;;;;26.17;12.13;;;;;2.40;94897.00;;;;8306685;28;20227;-73
2021/12/08 07:31:55;;;;;;;35.07;13.60;;;;;2.40;94901.00;;;;8294429;28;20229;-72
2021/12/08 07:36:05;;;;;;;31.03;12.50;;;;;2.40;94890.00;;;;8289432;28;20266;-72
2021/12/08 07:40:13;;;;;;;32.87;11.90;;;;;2.40;94893.00;;;;8291811;28;20328;-72
2021/12/08 07:44:17;;;;;;;30.43;11.40;;;;;2.50;94889.00;;;;8300989;28;20257;-69
2021/12/08 07:48:26;;;;;;;27.80;11.83;;;;;2.50;94896.00;;;;8300136;28;20797;-68
2021/12/08 07:52:34;;;;;;;23.80;9.50;;;;;2.50;94886.00;;;;8292448;28;20783;-72
2021/12/08 07:56:39;;;;;;;28.83;10.43;;;;;2.50;94885.00;;;;8296936;28;20244;-69
2021/12/08 08:00:47;;;;;;;30.07;10.90;;;;;2.50;94893.00;;;;8295980;28;20261;-70
2021/12/08 08:04:50;;;;;;;23.17;9.93;;;;;2.60;94907.00;;;;8294979;28;20255;-74
2021/12/08 08:08:55;;;;;;;20.30;9.13;;;;;2.70;94904.00;;;;8291533;28;20763;-72
2021/12/08 08:13:01;;;;;;;22.10;9.43;;;;;2.60;94898.00;;;;8294755;28;20261;-73
2021/12/08 08:17:06;;;;;;;19.10;9.63;;;;;2.50;94903.00;;;;8299247;28;20686;-75
2021/12/08 08:21:15;;;;;;;21.30;9.27;;;;;2.50;94900.00;;;;8297808;28;20231;-72
2021/12/08 08:25:23;;;;;;;16.90;8.33;;;;;2.50;94903.00;;;;8287473;28;20307;-72
2021/12/08 08:29:27;;;;;;;22.00;8.27;;;;;2.60;94896.00;;;;8284933;28;20708;-73
2021/12/08 08:33:36;;;;;;;19.87;9.27;;;;;2.60;94900.00;;;;8298040;28;20251;-73
2021/12/08 08:37:40;;;;;;;24.47;8.67;;;;;2.60;94901.00;;;;8271551;28;20232;-72
2021/12/08 08:41:49;;;;;;;22.83;8.87;;;;;2.50;94903.00;;;;8291538;28;20280;-73
2021/12/08 08:45:58;;;;;;;20.47;9.47;;;;;2.60;94897.00;;;;8291712;28;20317;-72
2021/12/08 08:50:02;;;;;;;18.00;7.73;;;;;2.70;94898.00;;;;8301711;28;20259;-71
2021/12/08 08:54:09;;;;;;;15.77;7.93;;;;;2.70;94888.00;;;;8296335;28;20264;-72
2021/12/08 08:58:14;;;;;;;17.83;7.43;;;;;2.70;94884.00;;;;8282579;28;20255;-71
2021/12/08 09:02:24;;;;;;;20.07;7.60;;;;;2.60;94880.00;;;;8287300;28;20277;-70
2021/12/08 09:06:32;;;;;;;17.90;8.60;;;;;2.60;94865.00;;;;8290305;28;20663;-71
2021/12/08 09:10:40;;;;;;;17.83;8.20;;;;;2.60;94877.00;;;;8285142;28;20718;-71
2021/12/08 09:14:48;;;;;;;17.63;6.87;;;;;2.60;94866.00;;;;8297170;28;20237;-71
2021/12/08 09:19:00;;;;;;;21.57;8.00;;;;;2.60;94861.00;;;;8289616;28;20665;-71
2021/12/08 09:23:09;;;;;;;18.27;7.20;;;;;2.50;94862.00;;;;8288611;28;20291;-71
2021/12/08 09:27:16;;;;;;;27.00;8.17;;;;;2.50;94857.00;;;;8297937;28;20258;-71
2021/12/08 09:31:25;;;;;;;20.67;8.87;;;;;2.50;94858.00;;;;8303802;28;20237;-71
2021/12/08 09:35:33;;;;;;;17.40;7.80;;;;;2.50;94849.00;;;;8290919;28;20252;-72
2021/12/08 09:39:39;;;;;;;19.50;7.83;;;;;2.60;94850.00;;;;8287212;28;20712;-72
2021/12/08 09:43:46;;;;;;;12.53;6.97;;;;;2.70;94843.00;;;;8284264;28;20300;-71
2021/12/08 09:47:52;;;;;;;17.83;7.47;;;;;2.70;94844.00;;;;8298845;28;20253;-71
2021/12/08 09:52:00;;;;;;;24.53;8.83;;;;;2.70;94842.00;;;;8290228;28;20304;-72
2021/12/08 09:56:05;;;;;;;14.90;7.30;;;;;2.70;94832.00;;;;8298841;28;20755;-70
2021/12/08 10:00:12;;;;;;;19.07;8.13;;;;;2.70;94813.00;;;;8286177;28;20294;-70
2021/12/08 10:04:17;;;;;;;20.93;7.60;;;;;2.80;94828.00;;;;8298315;28;20237;-71
2021/12/08 10:08:20;;;;;;;16.67;6.67;;;;;2.80;94826.00;;;;8294548;28;20230;-71
2021/12/08 10:12:24;;;;;;;16.40;6.53;;;;;2.80;94826.00;;;;8294396;28;20306;-71
2021/12/08 10:16:28;;;;;;;28.10;13.20;;;;;2.80;94828.00;;;;8302995;28;20266;-69
2021/12/08 10:20:35;;;;;;;58.13;25.40;;;;;2.80;94812.00;;;;8294152;28;20301;-72
2021/12/08 10:24:39;;;;;;;145.47;61.07;;;;;2.90;94803.00;;;;8285370;28;20782;-70
2021/12/08 10:28:45;;;;;;;150.03;57.70;;;;;3.00;94794.00;;;;8294922;28;20267;-69
2021/12/08 10:32:49;;;;;;;154.93;57.23;;;;;3.20;94795.00;;;;8285273;28;20232;-69
2021/12/08 10:36:56;;;;;;;242.77;89.23;;;;;3.20;94790.00;;;;8297641;28;20256;-70
2021/12/08 10:41:01;;;;;;;97.17;38.93;;;;;3.20;94785.00;;;;8295943;28;20216;-70
2021/12/08 10:45:10;;;;;;;63.27;27.40;;;;;3.30;94777.00;;;;8287911;28;20261;-71
2021/12/08 10:49:22;;;;;;;184.60;69.17;;;;;3.30;94771.00;;;;8297433;28;20237;-72
2021/12/08 10:57:55;;;;;;;246.93;97.53;;;;;3.60;94777.00;;;;8285456;28;20243;-73
2021/12/08 11:02:02;;;;;;;28.43;13.17;;;;;3.60;94767.00;;;;8273067;28;20876;-73
2021/12/08 11:06:09;;;;;;;94.97;35.90;;;;;3.70;94776.00;;;;8281769;28;20819;-72
2021/12/08 11:10:22;;;;;;;427.93;148.97;;;;;3.70;94771.00;;;;8297784;28;21029;-71
2021/12/08 11:14:26;;;;;;;31.37;14.03;;;;;3.70;94758.00;;;;8284294;28;20233;-72
2021/12/08 11:18:30;;;;;;;23.67;13.13;;;;;4.00;94765.00;;;;8301935;28;20358;-72
2021/12/08 11:22:33;;;;;;;38.80;22.27;;;;;4.30;94747.00;;;;8300041;28;20238;-71
2021/12/08 11:26:41;;;;;;;34.80;16.37;;;;;4.70;94730.00;;;;8295815;28;20247;-72
2021/12/08 11:30:44;;;;;;;76.97;31.70;;;;;4.70;94744.00;;;;8301357;28;20228;-72
2021/12/08 11:34:49;;;;;;;31.33;13.53;;;;;4.40;94759.00;;;;8293432;28;20310;-72
2021/12/08 11:38:53;;;;;;;17.40;8.90;;;;;4.20;94754.00;;;;8297611;28;25887;-70
2021/12/08 11:42:58;;;;;;;32.50;14.10;;;;;3.90;94750.00;;;;8309627;28;20458;-70
2021/12/08 11:47:05;;;;;;;25.37;12.70;;;;;3.80;94743.00;;;;8299424;28;20778;-73
2021/12/08 11:51:09;;;;;;;28.93;13.80;;;;;4.00;94733.00;;;;8294513;28;20230;-73
2021/12/08 11:55:15;;;;;;;19.17;10.23;;;;;4.00;94747.00;;;;8291900;28;20263;-72
2021/12/08 11:59:20;;;;;;;16.37;10.70;;;;;4.00;94742.00;;;;8287605;28;20272;-74
2021/12/08 12:03:23;;;;;;;17.67;8.50;;;;;3.90;94735.00;;;;8289605;28;20234;-74
2021/12/08 12:07:28;;;;;;;19.07;8.27;;;;;3.70;94720.00;;;;8295867;28;20264;-74
2021/12/08 12:11:32;;;;;;;19.00;8.57;;;;;3.60;94720.00;;;;8299050;28;20969;-74
2021/12/08 12:15:38;;;;;;;20.13;9.87;;;;;3.50;94728.00;;;;8280497;28;20362;-75
2021/12/08 12:19:48;;;;;;;23.20;12.40;;;;;3.50;94712.00;;;;8287245;28;20255;-75
2021/12/08 12:24:13;;;;;;;23.97;10.43;;;;;3.60;94691.00;;;;8304978;28;20312;-75
2021/12/08 12:28:43;;;;;;;18.47;9.90;;;;;3.50;94679.00;;;;8293889;28;20242;-73
2021/12/08 12:32:51;;;;;;;20.20;9.60;;;;;3.40;94676.00;;;;8283746;28;20959;-73
2021/12/08 12:36:56;;;;;;;20.87;8.43;;;;;3.20;94670.00;;;;8286852;28;20256;-75
2021/12/08 12:40:59;;;;;;;19.77;9.77;;;;;3.00;94678.00;;;;8297067;28;20268;-75
2021/12/08 12:45:07;;;;;;;17.40;8.00;;;;;3.00;94673.00;;;;8295221;28;20233;-75
2021/12/08 12:49:23;;;;;;;22.43;9.27;;;;;2.90;94665.00;;;;8293508;28;20265;-75
2021/12/08 12:53:40;;;;;;;17.53;8.40;;;;;2.90;94673.00;;;;8281286;28;20240;-75
2021/12/08 12:58:19;;;;;;;21.73;8.90;;;;;2.90;94670.00;;;;8277170;28;20234;-76
2021/12/08 13:02:29;;;;;;;19.90;7.57;;;;;2.90;94670.00;;;;8282471;28;20277;-75
2021/12/08 13:06:46;;;;;;;17.63;8.20;;;;;3.00;94677.00;;;;8278242;28;20318;-77
2021/12/08 13:15:56;;;;;;;21.17;10.47;;;;;2.70;94653.00;;;;8296196;28;20221;-77
2021/12/08 13:20:01;;;;;;;27.13;10.73;;;;;2.70;94671.00;;;;8296532;28;20253;-77
2021/12/08 13:24:42;;;;;;;18.83;8.30;;;;;2.70;94651.00;;;;8296398;28;20594;-76
2021/12/08 13:29:21;;;;;;;22.13;8.57;;;;;2.70;94636.00;;;;8296811;28;20211;-77
2021/12/08 13:33:31;;;;;;;24.13;10.87;;;;;2.60;94638.00;;;;8294056;28;20223;-77
2021/12/08 13:37:34;;;;;;;28.13;11.03;;;;;2.60;94627.00;;;;8296427;28;20249;-77
2021/12/08 13:41:40;;;;;;;20.63;8.93;;;;;2.50;94621.00;;;;8296930;28;20233;-78
2021/12/08 13:46:39;;;;;;;18.57;8.67;;;;;2.40;94603.00;;;;8295267;28;20655;-77
2021/12/08 13:50:52;;;;;;;20.23;7.90;;;;;2.40;94622.00;;;;8295575;28;20246;-77
2021/12/08 13:55:30;;;;;;;26.53;8.83;;;;;2.40;94633.00;;;;8295196;28;20311;-75
2021/12/08 14:00:08;;;;;;;23.93;9.70;;;;;2.40;94650.00;;;;8296510;28;20567;-78
2021/12/08 14:04:16;;;;;;;17.70;8.13;;;;;2.40;94633.00;;;;8294800;28;20225;-77
2021/12/08 14:08:50;;;;;;;22.17;8.03;;;;;2.50;94646.00;;;;8294553;28;20234;-77
2021/12/08 14:13:26;;;;;;;18.03;8.07;;;;;2.50;94633.00;;;;8295896;28;20225;-77
2021/12/08 14:17:30;;;;;;;20.90;7.97;;;;;2.50;94627.00;;;;8294640;28;20645;-78
2021/12/08 14:21:36;;;;;;;20.80;7.93;;;;;2.40;94622.00;;;;8295401;28;20229;-78
2021/12/08 14:26:01;;;;;;;16.47;7.60;;;;;2.40;94627.00;;;;8293430;28;20240;-79
2021/12/08 14:30:35;;;;;;;17.90;7.43;;;;;2.40;94598.00;;;;8295390;28;20663;-77
2021/12/08 14:35:13;;;;;;;23.67;9.77;;;;;2.30;94616.00;;;;8293958;28;20230;-78
2021/12/08 14:39:49;;;;;;;25.83;9.03;;;;;2.30;94614.00;;;;8295353;28;20219;-77
2021/12/08 14:43:53;;;;;;;21.00;8.23;;;;;2.30;94629.00;;;;8297088;28;20231;-79
2021/12/08 14:48:27;;;;;;;21.30;8.20;;;;;2.40;94658.00;;;;8301318;28;20251;-78
2021/12/08 14:52:33;;;;;;;22.00;9.03;;;;;2.40;94676.00;;;;8301287;28;20555;-79
2021/12/08 14:56:36;;;;;;;22.63;9.53;;;;;2.50;94658.00;;;;8300895;28;20296;-80
2021/12/08 15:01:13;;;;;;;29.70;8.77;;;;;2.50;94641.00;;;;8300858;28;20254;-70
2021/12/08 15:05:52;;;;;;;26.23;8.30;;;;;2.40;94615.00;;;;8301134;28;20243;-70
2021/12/08 15:10:29;;;;;;;18.03;7.07;;;;;2.40;94589.00;;;;8300843;28;20250;-71
2021/12/08 15:14:39;;;;;;;21.73;7.80;;;;;2.30;94606.00;;;;8299917;28;20219;-71
2021/12/08 15:19:12;;;;;;;26.27;8.53;;;;;2.30;94631.00;;;;8298896;28;20236;-70
2021/12/08 15:23:49;;;;;;;24.67;8.10;;;;;2.30;94631.00;;;;8299713;28;20221;-70
2021/12/08 15:28:27;;;;;;;25.60;8.13;;;;;2.30;94625.00;;;;8299606;28;20238;-71
2021/12/08 15:33:01;;;;;;;24.53;8.50;;;;;2.30;94645.00;;;;8299583;28;20310;-80
2021/12/08 15:37:33;;;;;;;19.40;8.00;;;;;2.40;94658.00;;;;8299853;28;20230;-79
2021/12/08 15:42:08;;;;;;;19.93;8.03;;;;;2.40;94635.00;;;;8298803;28;20219;-80
2021/12/08 15:46:43;;;;;;;22.43;7.73;;;;;2.20;94581.00;;;;8298658;28;20234;-81
2021/12/08 15:51:23;;;;;;;17.10;8.73;;;;;2.20;94609.00;;;;8298338;28;20228;-79
2021/12/08 15:55:58;;;;;;;25.10;9.27;;;;;2.10;94610.00;;;;8298091;28;20218;-79
2021/12/08 16:00:32;;;;;;;47.90;21.10;;;;;2.20;94645.00;;;;8298070;28;20647;-81
2021/12/08 16:04:45;;;;;;;20.80;7.43;;;;;2.30;94637.00;;;;8297788;28;20241;-80
2021/12/08 16:09:46;;;;;;;21.03;9.80;;;;;2.20;94630.00;;;;8298744;28;20233;-80
2021/12/08 16:13:50;;;;;;;27.73;10.20;;;;;2.20;94655.00;;;;8297514;28;20217;-79
2021/12/08 16:18:27;;;;;;;23.97;10.10;;;;;2.20;94637.00;;;;8298019;28;20666;-78
2021/12/08 16:22:31;;;;;;;31.67;10.10;;;;;2.20;94658.00;;;;8297883;28;20222;-78
2021/12/08 16:26:35;;;;;;;30.50;11.47;;;;;2.30;94649.00;;;;8297828;28;20680;-78
2021/12/08 16:30:40;;;;;;;31.73;12.07;;;;;2.30;94623.00;;;;8297337;28;20682;-78
2021/12/08 16:34:44;;;;;;;47.60;14.73;;;;;2.30;94656.00;;;;8298553;28;20219;-73
2021/12/08 16:39:22;;;;;;;34.47;13.03;;;;;2.20;94617.00;;;;8297329;28;20226;-74
2021/12/08 16:43:54;;;;;;;36.13;11.47;;;;;2.20;94645.00;;;;8297037;28;20225;-73
2021/12/08 16:48:32;;;;;;;35.30;13.63;;;;;2.20;94645.00;;;;8297456;28;20234;-73
2021/12/08 16:52:35;;;;;;;38.53;13.40;;;;;2.20;94653.00;;;;8297190;28;20244;-74
2021/12/08 16:56:39;;;;;;;29.30;11.50;;;;;2.30;94672.00;;;;8296659;28;20226;-73
2021/12/08 17:00:45;;;;;;;32.27;12.47;;;;;2.30;94690.00;;;;8296962;28;20633;-72
2021/12/08 17:04:50;;;;;;;37.40;13.00;;;;;2.40;94682.00;;;;8296051;28;20261;-74
2021/12/08 17:09:23;;;;;;;33.27;13.13;;;;;2.40;94688.00;;;;8295631;28;20733;-73
2021/12/08 17:13:28;;;;;;;41.70;14.90;;;;;2.40;94676.00;;;;8295987;28;20225;-74
2021/12/08 17:18:02;;;;;;;45.07;15.03;;;;;2.40;94667.00;;;;8296887;28;20234;-73
2021/12/08 17:22:40;;;;;;;42.17;13.60;;;;;2.40;94683.00;;;;8295697;28;20228;-73
2021/12/08 17:27:18;;;;;;;32.00;12.93;;;;;2.40;94689.00;;;;8295806;28;20281;-74
2021/12/08 17:31:55;;;;;;;39.60;12.10;;;;;2.30;94678.00;;;;8295560;28;20224;-73
2021/12/08 17:36:29;;;;;;;35.63;14.33;;;;;2.30;94676.00;;;;8296343;28;20235;-73
2021/12/08 17:41:06;;;;;;;34.83;13.43;;;;;2.30;94648.00;;;;8295125;28;20548;-74
2021/12/08 17:45:45;;;;;;;48.20;16.40;;;;;2.30;94640.00;;;;8295598;28;20214;-77
2021/12/08 17:50:24;;;;;;;59.10;19.27;;;;;2.20;94652.00;;;;8295302;28;20273;-77
2021/12/08 17:54:57;;;;;;;39.23;15.10;;;;;2.20;94654.00;;;;8295244;28;20222;-77
2021/12/08 17:59:34;;;;;;;44.53;14.90;;;;;2.30;94671.00;;;;8295012;28;20224;-79
2021/12/08 18:03:39;;;;;;;44.83;16.87;;;;;2.40;94682.00;;;;8294735;28;20258;-76
2021/12/08 18:08:14;;;;;;;33.07;14.23;;;;;2.50;94672.00;;;;8295462;28;20260;-78
2021/12/08 18:12:50;;;;;;;44.70;16.07;;;;;2.50;94658.00;;;;8295019;28;20229;-77
2021/12/08 18:17:27;;;;;;;43.83;14.63;;;;;2.30;94645.00;;;;8294638;28;20220;-77
2021/12/08 18:22:05;;;;;;;37.43;14.53;;;;;2.10;94635.00;;;;8301560;28;20212;-77
2021/12/08 18:26:39;;;;;;;46.93;15.70;;;;;2.00;94636.00;;;;8302011;28;20232;-78
2021/12/08 18:31:16;;;;;;;36.53;14.27;;;;;1.90;94638.00;;;;8301608;28;20258;-74
2021/12/08 18:36:02;;;;;;;49.77;15.10;;;;;1.80;94632.00;;;;8301357;28;20232;-74
2021/12/08 18:40:31;;;;;;;40.73;13.93;;;;;1.80;94650.00;;;;8300938;28;20238;-74
2021/12/08 18:45:12;;;;;;;35.70;13.10;;;;;1.80;94623.00;;;;8295616;28;20237;-74
2021/12/08 18:49:48;;;;;;;34.07;12.77;;;;;1.70;94606.00;;;;8300472;28;20310;-74
2021/12/08 18:54:25;;;;;;;45.73;13.67;;;;;1.70;94618.00;;;;8300672;28;20284;-74
2021/12/08 18:59:04;;;;;;;57.30;17.60;;;;;1.70;94633.00;;;;8300756;28;20229;-74
2021/12/08 19:08:40;;;;;;;50.00;17.70;;;;;1.80;94651.00;;;;8300528;28;20249;-78
2021/12/08 19:13:17;;;;;;;46.03;16.30;;;;;1.80;94683.00;;;;8299978;28;20229;-79
2021/12/08 19:17:22;;;;;;;49.50;16.40;;;;;2.00;94690.00;;;;8299254;28;20663;-79
2021/12/08 19:21:56;;;;;;;85.57;24.60;;;;;2.10;94725.00;;;;8300663;28;20218;-78
2021/12/08 19:26:33;;;;;;;60.77;19.87;;;;;2.20;94717.00;;;;8299508;28;20648;-78
2021/12/08 19:31:11;;;;;;;58.63;17.57;;;;;2.20;94729.00;;;;8297530;28;20325;-77
2021/12/08 19:35:17;;;;;;;50.40;15.57;;;;;2.30;94735.00;;;;8299665;28;20219;-79
2021/12/08 19:39:52;;;;;;;48.13;14.63;;;;;2.40;94748.00;;;;8300938;28;20218;-78
2021/12/08 19:43:56;;;;;;;54.30;16.00;;;;;2.50;94744.00;;;;8299433;28;20222;-78
2021/12/08 19:48:30;;;;;;;52.80;16.27;;;;;2.40;94721.00;;;;8299891;28;20228;-79
2021/12/08 19:53:06;;;;;;;58.17;17.60;;;;;2.40;94719.00;;;;8299230;28;20237;-78
2021/12/08 19:57:42;;;;;;;41.87;14.67;;;;;2.40;94703.00;;;;8299067;28;20211;-79
2021/12/08 20:01:47;;;;;;;56.03;17.20;;;;;2.30;94697.00;;;;8298221;28;20609;-75
2021/12/08 20:06:11;;;;;;;49.80;14.50;;;;;2.20;94692.00;;;;8298860;28;20598;-78
2021/12/08 20:10:46;;;;;;;38.73;13.43;;;;;2.10;94688.00;;;;8299093;28;20288;-77
2021/12/08 20:15:24;;;;;;;46.23;15.03;;;;;2.00;94676.00;;;;8298977;28;20275;-78
2021/12/08 20:19:55;;;;;;;46.60;15.17;;;;;2.00;94682.00;;;;8298749;28;20214;-78
2021/12/08 20:24:34;;;;;;;58.60;16.80;;;;;2.00;94712.00;;;;8297836;28;20606;-78
2021/12/08 20:29:10;;;;;;;49.03;15.13;;;;;2.10;94708.00;;;;8297734;28;20235;-77
2021/12/08 20:33:16;;;;;;;51.70;15.87;;;;;2.10;94700.00;;;;8298543;28;20249;-77
2021/12/08 20:37:22;;;;;;;65.97;17.90;;;;;2.10;94697.00;;;;8298521;28;20223;-80
2021/12/08 20:41:58;;;;;;;48.10;14.57;;;;;2.10;94711.00;;;;8297490;28;20222;-78
2021/12/08 20:46:37;;;;;;;60.90;17.70;;;;;2.10;94718.00;;;;8297327;28;20606;-75
2021/12/08 20:51:14;;;;;;;71.27;19.87;;;;;2.10;94706.00;;;;8297773;28;20659;-79
2021/12/08 20:55:52;;;;;;;66.07;18.57;;;;;2.10;94697.00;;;;8297831;28;20290;-77
2021/12/08 21:00:39;;;;;;;48.40;15.57;;;;;2.10;94694.00;;;;8297480;28;20270;-76
2021/12/08 21:05:06;;;;;;;52.33;14.70;;;;;2.00;94696.00;;;;8295963;28;20256;-74
2021/12/08 21:09:46;;;;;;;54.93;16.30;;;;;1.90;94703.00;;;;8296315;28;20233;-73
2021/12/08 21:13:50;;;;;;;82.30;19.10;;;;;1.90;94698.00;;;;8296931;28;20227;-76
2021/12/08 21:18:25;;;;;;;50.80;14.93;;;;;1.90;94717.00;;;;8296757;28;20217;-74
2021/12/08 21:22:29;;;;;;;64.40;17.10;;;;;1.90;94724.00;;;;8296263;28;20340;-74
2021/12/08 21:26:36;;;;;;;52.83;16.27;;;;;2.00;94718.00;;;;8296570;28;20683;-74
2021/12/08 21:30:42;;;;;;;68.73;18.07;;;;;2.00;94723.00;;;;8296378;28;20246;-74
2021/12/08 21:35:28;;;;;;;64.90;18.10;;;;;2.00;94717.00;;;;8296246;28;20609;-75
2021/12/08 21:39:33;;;;;;;65.03;16.73;;;;;2.00;94714.00;;;;8295777;28;20574;-75
2021/12/08 21:44:09;;;;;;;71.23;17.27;;;;;2.00;94736.00;;;;8296538;28;20252;-75
2021/12/08 21:48:12;;;;;;;67.37;17.37;;;;;2.00;94745.00;;;;8296046;28;20251;-75
2021/12/08 21:52:16;;;;;;;58.13;17.33;;;;;2.00;94734.00;;;;8295384;28;20241;-75
2021/12/08 21:56:20;;;;;;;68.53;17.63;;;;;2.00;94720.00;;;;8295452;28;20241;-75